sensor_id;sensor_type;location;lat;lon;timestamp;pressure;altitude;pressure_sealevel;temperature;humidity
72414;BME280;60995;52.154;4.498;2024-02-28T00:00:55;101892.06;;;6.31;100.00
72414;BME280;60995;52.154;4.498;2024-02-28T00:03:12;101895.66;;;6.31;100.00
72414;BME280;60995;52.154;4.498;2024-02-28T00:05:29;101888.59;;;6.28;100.00
72414;BME280;60995;52.154;4.498;2024-02-28T00:07:47;101889.69;;;6.24;100.00
72414;BME280;60995;52.154;4.498;2024-02-28T00:10:03;101897.53;;;6.29;100.00
72414;BME280;60995;52.154;4.498;2024-02-28T00:12:20;101884.47;;;6.21;100.00
72414;BME280;60995;52.154;4.498;2024-02-28T00:14:38;101882.06;;;6.17;100.00
72414;BME280;60995;52.154;4.498;2024-02-28T00:16:55;101883.44;;;6.24;100.00
72414;BME280;60995;52.154;4.498;2024-02-28T00:19:11;101881.19;;;6.32;100.00
72414;BME280;60995;52.154;4.498;2024-02-28T00:21:28;101876.66;;;6.17;100.00
72414;BME280;60995;52.154;4.498;2024-02-28T00:23:46;101872.22;;;6.16;100.00
72414;BME280;60995;52.154;4.498;2024-02-28T00:26:02;101880.22;;;6.17;100.00
72414;BME280;60995;52.154;4.498;2024-02-28T00:28:19;101869.69;;;6.12;100.00
72414;BME280;60995;52.154;4.498;2024-02-28T00:30:35;101864.28;;;6.12;100.00
72414;BME280;60995;52.154;4.498;2024-02-28T00:32:57;101854.19;;;6.00;100.00
72414;BME280;60995;52.154;4.498;2024-02-28T00:35:13;101850.56;;;6.01;100.00
72414;BME280;60995;52.154;4.498;2024-02-28T00:37:32;101851.59;;;5.99;100.00
72414;BME280;60995;52.154;4.498;2024-02-28T00:39:49;101851.88;;;5.92;100.00
72414;BME280;60995;52.154;4.498;2024-02-28T00:42:06;101850.63;;;5.82;100.00
72414;BME280;60995;52.154;4.498;2024-02-28T00:44:23;101855.59;;;5.90;100.00
72414;BME280;60995;52.154;4.498;2024-02-28T00:46:39;101859.69;;;5.97;100.00
72414;BME280;60995;52.154;4.498;2024-02-28T00:48:55;101866.53;;;6.04;100.00
72414;BME280;60995;52.154;4.498;2024-02-28T00:51:12;101870.25;;;6.02;100.00
72414;BME280;60995;52.154;4.498;2024-02-28T00:53:28;101875.25;;;6.09;100.00
72414;BME280;60995;52.154;4.498;2024-02-28T00:55:44;101885.19;;;6.25;100.00
72414;BME280;60995;52.154;4.498;2024-02-28T00:58:01;101889.47;;;6.29;100.00
72414;BME280;60995;52.154;4.498;2024-02-28T01:00:17;101896.72;;;6.44;100.00
72414;BME280;60995;52.154;4.498;2024-02-28T01:02:34;101897.47;;;6.46;100.00
72414;BME280;60995;52.154;4.498;2024-02-28T01:04:50;101898.09;;;6.52;100.00
72414;BME280;60995;52.154;4.498;2024-02-28T01:07:07;101912.47;;;6.68;100.00
72414;BME280;60995;52.154;4.498;2024-02-28T01:09:23;101913.94;;;6.74;100.00
72414;BME280;60995;52.154;4.498;2024-02-28T01:11:40;101899.31;;;6.62;100.00
72414;BME280;60995;52.154;4.498;2024-02-28T01:13:56;101899.16;;;6.65;100.00
72414;BME280;60995;52.154;4.498;2024-02-28T01:16:12;101909.00;;;6.82;100.00
72414;BME280;60995;52.154;4.498;2024-02-28T01:18:28;101900.88;;;6.66;100.00
72414;BME280;60995;52.154;4.498;2024-02-28T01:20:46;101908.63;;;6.72;100.00
72414;BME280;60995;52.154;4.498;2024-02-28T01:23:04;101911.00;;;6.78;100.00
72414;BME280;60995;52.154;4.498;2024-02-28T01:25:20;101899.59;;;6.73;100.00
72414;BME280;60995;52.154;4.498;2024-02-28T01:27:36;101907.16;;;6.83;100.00
72414;BME280;60995;52.154;4.498;2024-02-28T01:29:53;101904.03;;;6.74;100.00
72414;BME280;60995;52.154;4.498;2024-02-28T01:32:09;101890.09;;;6.66;100.00
72414;BME280;60995;52.154;4.498;2024-02-28T01:34:26;101905.06;;;6.88;100.00
72414;BME280;60995;52.154;4.498;2024-02-28T01:36:42;101901.44;;;6.89;100.00
72414;BME280;60995;52.154;4.498;2024-02-28T01:38:58;101910.84;;;6.98;100.00
72414;BME280;60995;52.154;4.498;2024-02-28T01:41:15;101900.72;;;6.85;100.00
72414;BME280;60995;52.154;4.498;2024-02-28T01:43:31;101895.09;;;6.90;100.00
72414;BME280;60995;52.154;4.498;2024-02-28T01:45:48;101898.63;;;6.90;100.00
72414;BME280;60995;52.154;4.498;2024-02-28T01:48:09;101906.19;;;7.00;100.00
72414;BME280;60995;52.154;4.498;2024-02-28T01:50:27;101911.50;;;7.01;100.00
72414;BME280;60995;52.154;4.498;2024-02-28T01:52:44;101911.44;;;7.03;100.00
72414;BME280;60995;52.154;4.498;2024-02-28T01:55:01;101911.88;;;6.95;100.00
72414;BME280;60995;52.154;4.498;2024-02-28T01:57:17;101910.22;;;7.08;100.00
72414;BME280;60995;52.154;4.498;2024-02-28T01:59:34;101911.94;;;7.09;100.00
72414;BME280;60995;52.154;4.498;2024-02-28T02:01:51;101917.50;;;7.06;100.00
72414;BME280;60995;52.154;4.498;2024-02-28T02:04:07;101912.81;;;7.10;100.00
72414;BME280;60995;52.154;4.498;2024-02-28T02:06:23;101910.03;;;7.11;100.00
72414;BME280;60995;52.154;4.498;2024-02-28T02:08:40;101914.47;;;7.12;100.00
72414;BME280;60995;52.154;4.498;2024-02-28T02:10:57;101901.16;;;7.09;100.00
72414;BME280;60995;52.154;4.498;2024-02-28T02:13:13;101906.09;;;7.01;100.00
72414;BME280;60995;52.154;4.498;2024-02-28T02:15:30;101903.84;;;7.09;100.00
72414;BME280;60995;52.154;4.498;2024-02-28T02:17:48;101923.34;;;7.15;100.00
72414;BME280;60995;52.154;4.498;2024-02-28T02:20:05;101911.66;;;7.14;100.00
72414;BME280;60995;52.154;4.498;2024-02-28T02:22:23;101903.56;;;7.14;100.00
72414;BME280;60995;52.154;4.498;2024-02-28T02:24:45;101923.03;;;7.35;100.00
72414;BME280;60995;52.154;4.498;2024-02-28T02:27:02;101922.97;;;7.37;100.00
72414;BME280;60995;52.154;4.498;2024-02-28T02:29:21;101924.19;;;7.31;100.00
72414;BME280;60995;52.154;4.498;2024-02-28T02:31:37;101916.81;;;7.19;100.00
72414;BME280;60995;52.154;4.498;2024-02-28T02:33:54;101918.88;;;7.29;100.00
72414;BME280;60995;52.154;4.498;2024-02-28T02:36:12;101935.84;;;7.48;100.00
72414;BME280;60995;52.154;4.498;2024-02-28T02:38:29;101933.38;;;7.43;100.00
72414;BME280;60995;52.154;4.498;2024-02-28T02:40:51;101933.22;;;7.46;100.00
72414;BME280;60995;52.154;4.498;2024-02-28T02:43:08;101923.19;;;7.48;100.00
72414;BME280;60995;52.154;4.498;2024-02-28T02:45:25;101909.25;;;7.09;100.00
72414;BME280;60995;52.154;4.498;2024-02-28T02:47:41;101903.66;;;7.12;100.00
72414;BME280;60995;52.154;4.498;2024-02-28T02:49:59;101906.53;;;7.25;100.00
72414;BME280;60995;52.154;4.498;2024-02-28T02:52:16;101908.88;;;7.32;100.00
72414;BME280;60995;52.154;4.498;2024-02-28T02:54:32;101907.72;;;7.36;100.00
72414;BME280;60995;52.154;4.498;2024-02-28T02:56:49;101896.84;;;7.37;100.00
72414;BME280;60995;52.154;4.498;2024-02-28T02:59:05;101907.69;;;7.52;100.00
72414;BME280;60995;52.154;4.498;2024-02-28T03:01:21;101900.09;;;7.28;100.00
72414;BME280;60995;52.154;4.498;2024-02-28T03:03:38;101896.44;;;7.29;100.00
72414;BME280;60995;52.154;4.498;2024-02-28T03:05:55;101893.03;;;7.25;100.00
72414;BME280;60995;52.154;4.498;2024-02-28T03:08:13;101874.63;;;7.02;100.00
72414;BME280;60995;52.154;4.498;2024-02-28T03:10:33;101879.66;;;6.92;100.00
72414;BME280;60995;52.154;4.498;2024-02-28T03:12:50;101880.69;;;6.89;100.00
72414;BME280;60995;52.154;4.498;2024-02-28T03:15:08;101880.03;;;6.86;100.00
72414;BME280;60995;52.154;4.498;2024-02-28T03:17:24;101877.50;;;6.83;100.00
72414;BME280;60995;52.154;4.498;2024-02-28T03:19:41;101886.28;;;6.86;100.00
72414;BME280;60995;52.154;4.498;2024-02-28T03:21:58;101887.84;;;6.74;100.00
72414;BME280;60995;52.154;4.498;2024-02-28T03:24:14;101884.91;;;6.95;100.00
72414;BME280;60995;52.154;4.498;2024-02-28T03:26:30;101897.25;;;6.99;100.00
72414;BME280;60995;52.154;4.498;2024-02-28T03:28:47;101900.56;;;7.04;100.00
72414;BME280;60995;52.154;4.498;2024-02-28T03:31:03;101902.13;;;7.08;100.00
72414;BME280;60995;52.154;4.498;2024-02-28T03:33:20;101897.31;;;7.14;100.00
72414;BME280;60995;52.154;4.498;2024-02-28T03:35:39;101903.47;;;7.16;100.00
72414;BME280;60995;52.154;4.498;2024-02-28T03:37:55;101902.97;;;7.25;100.00
72414;BME280;60995;52.154;4.498;2024-02-28T03:40:12;101903.13;;;7.22;100.00
72414;BME280;60995;52.154;4.498;2024-02-28T03:42:28;101901.66;;;7.16;100.00
72414;BME280;60995;52.154;4.498;2024-02-28T03:44:44;101900.09;;;7.28;100.00
72414;BME280;60995;52.154;4.498;2024-02-28T03:47:01;101897.38;;;7.28;100.00
72414;BME280;60995;52.154;4.498;2024-02-28T03:49:17;101902.69;;;7.29;100.00
72414;BME280;60995;52.154;4.498;2024-02-28T03:51:40;101904.03;;;7.22;100.00
72414;BME280;60995;52.154;4.498;2024-02-28T03:53:57;101900.72;;;7.17;100.00
72414;BME280;60995;52.154;4.498;2024-02-28T03:56:24;101905.06;;;7.20;100.00
72414;BME280;60995;52.154;4.498;2024-02-28T03:58:41;101911.50;;;7.17;100.00
72414;BME280;60995;52.154;4.498;2024-02-28T04:00:58;101915.88;;;7.20;100.00
72414;BME280;60995;52.154;4.498;2024-02-28T04:03:15;101918.47;;;7.21;100.00
72414;BME280;60995;52.154;4.498;2024-02-28T04:05:32;101926.53;;;7.37;100.00
72414;BME280;60995;52.154;4.498;2024-02-28T04:07:48;101932.72;;;7.39;100.00
72414;BME280;60995;52.154;4.498;2024-02-28T04:10:05;101932.78;;;7.54;100.00
72414;BME280;60995;52.154;4.498;2024-02-28T04:12:22;101936.13;;;7.73;100.00
72414;BME280;60995;52.154;4.498;2024-02-28T04:14:38;101942.22;;;7.77;100.00
72414;BME280;60995;52.154;4.498;2024-02-28T04:16:54;101930.78;;;7.57;100.00
72414;BME280;60995;52.154;4.498;2024-02-28T04:19:11;101934.78;;;7.50;100.00
72414;BME280;60995;52.154;4.498;2024-02-28T04:21:29;101929.94;;;7.41;100.00
72414;BME280;60995;52.154;4.498;2024-02-28T04:23:45;101927.50;;;7.36;100.00
72414;BME280;60995;52.154;4.498;2024-02-28T04:26:02;101925.56;;;7.38;100.00
72414;BME280;60995;52.154;4.498;2024-02-28T04:28:19;101941.44;;;7.44;100.00
72414;BME280;60995;52.154;4.498;2024-02-28T04:30:36;101951.84;;;7.67;100.00
72414;BME280;60995;52.154;4.498;2024-02-28T04:32:52;101946.44;;;7.51;100.00
72414;BME280;60995;52.154;4.498;2024-02-28T04:35:08;101951.31;;;7.60;100.00
72414;BME280;60995;52.154;4.498;2024-02-28T04:37:25;101944.88;;;7.47;100.00
72414;BME280;60995;52.154;4.498;2024-02-28T04:39:41;101944.94;;;7.61;100.00
72414;BME280;60995;52.154;4.498;2024-02-28T04:41:57;101964.69;;;7.77;100.00
72414;BME280;60995;52.154;4.498;2024-02-28T04:44:13;101948.19;;;7.52;100.00
72414;BME280;60995;52.154;4.498;2024-02-28T04:46:30;101961.75;;;7.66;100.00
72414;BME280;60995;52.154;4.498;2024-02-28T04:48:46;101960.19;;;7.62;100.00
72414;BME280;60995;52.154;4.498;2024-02-28T04:51:03;101960.09;;;7.64;100.00
72414;BME280;60995;52.154;4.498;2024-02-28T04:53:19;101963.69;;;7.64;100.00
72414;BME280;60995;52.154;4.498;2024-02-28T04:55:36;101965.84;;;7.73;100.00
72414;BME280;60995;52.154;4.498;2024-02-28T04:57:52;101968.53;;;7.73;100.00
72414;BME280;60995;52.154;4.498;2024-02-28T05:00:09;101950.72;;;7.55;100.00
72414;BME280;60995;52.154;4.498;2024-02-28T05:02:25;101957.91;;;7.70;100.00
72414;BME280;60995;52.154;4.498;2024-02-28T05:04:42;101950.63;;;7.56;100.00
72414;BME280;60995;52.154;4.498;2024-02-28T05:06:59;101946.19;;;7.55;100.00
72414;BME280;60995;52.154;4.498;2024-02-28T05:09:15;101953.66;;;7.66;100.00
72414;BME280;60995;52.154;4.498;2024-02-28T05:11:31;101958.09;;;7.67;100.00
72414;BME280;60995;52.154;4.498;2024-02-28T05:13:48;101953.03;;;7.61;100.00
72414;BME280;60995;52.154;4.498;2024-02-28T05:16:04;101964.00;;;7.74;100.00
72414;BME280;60995;52.154;4.498;2024-02-28T05:18:29;101962.09;;;7.60;100.00
72414;BME280;60995;52.154;4.498;2024-02-28T05:20:46;101949.38;;;7.62;100.00
72414;BME280;60995;52.154;4.498;2024-02-28T05:23:02;101952.38;;;7.57;100.00
72414;BME280;60995;52.154;4.498;2024-02-28T05:25:20;101957.94;;;7.54;100.00
72414;BME280;60995;52.154;4.498;2024-02-28T05:27:36;101951.72;;;7.68;100.00
72414;BME280;60995;52.154;4.498;2024-02-28T05:29:52;101967.84;;;7.70;100.00
72414;BME280;60995;52.154;4.498;2024-02-28T05:32:09;101948.03;;;7.55;100.00
72414;BME280;60995;52.154;4.498;2024-02-28T05:34:25;101951.84;;;7.51;100.00
72414;BME280;60995;52.154;4.498;2024-02-28T05:36:41;101950.91;;;7.52;100.00
72414;BME280;60995;52.154;4.498;2024-02-28T05:39:00;101955.00;;;7.59;100.00
72414;BME280;60995;52.154;4.498;2024-02-28T05:41:17;101950.34;;;7.61;100.00
72414;BME280;60995;52.154;4.498;2024-02-28T05:43:34;101943.09;;;7.47;100.00
72414;BME280;60995;52.154;4.498;2024-02-28T05:45:53;101945.91;;;7.60;100.00
72414;BME280;60995;52.154;4.498;2024-02-28T05:48:10;101936.03;;;7.44;100.00
72414;BME280;60995;52.154;4.498;2024-02-28T05:50:27;101933.13;;;7.48;100.00
72414;BME280;60995;52.154;4.498;2024-02-28T05:52:43;101945.53;;;7.66;100.00
72414;BME280;60995;52.154;4.498;2024-02-28T05:55:03;101940.13;;;7.66;100.00
72414;BME280;60995;52.154;4.498;2024-02-28T05:57:20;101935.28;;;7.57;100.00
72414;BME280;60995;52.154;4.498;2024-02-28T05:59:37;101925.56;;;7.38;100.00
72414;BME280;60995;52.154;4.498;2024-02-28T06:01:53;101925.03;;;7.48;100.00
72414;BME280;60995;52.154;4.498;2024-02-28T06:04:09;101937.03;;;7.58;100.00
72414;BME280;60995;52.154;4.498;2024-02-28T06:06:26;101929.53;;;7.63;100.00
72414;BME280;60995;52.154;4.498;2024-02-28T06:08:42;101935.63;;;7.67;100.00
72414;BME280;60995;52.154;4.498;2024-02-28T06:11:00;101945.41;;;7.84;100.00
72414;BME280;60995;52.154;4.498;2024-02-28T06:13:17;101936.25;;;7.56;100.00
72414;BME280;60995;52.154;4.498;2024-02-28T06:15:34;101944.00;;;7.62;100.00
72414;BME280;60995;52.154;4.498;2024-02-28T06:17:50;101941.47;;;7.59;100.00
72414;BME280;60995;52.154;4.498;2024-02-28T06:20:07;101937.22;;;7.55;100.00
72414;BME280;60995;52.154;4.498;2024-02-28T06:22:23;101943.78;;;7.65;100.00
72414;BME280;60995;52.154;4.498;2024-02-28T06:24:40;101946.50;;;7.65;100.00
72414;BME280;60995;52.154;4.498;2024-02-28T06:26:56;101961.38;;;7.72;100.00
72414;BME280;60995;52.154;4.498;2024-02-28T06:29:12;101950.19;;;7.64;100.00
72414;BME280;60995;52.154;4.498;2024-02-28T06:31:29;101952.53;;;7.54;100.00
72414;BME280;60995;52.154;4.498;2024-02-28T06:33:47;101953.78;;;7.49;100.00
72414;BME280;60995;52.154;4.498;2024-02-28T06:36:03;101970.81;;;7.65;100.00
72414;BME280;60995;52.154;4.498;2024-02-28T06:38:20;101969.94;;;7.65;100.00
72414;BME280;60995;52.154;4.498;2024-02-28T06:40:36;101974.09;;;7.70;100.00
72414;BME280;60995;52.154;4.498;2024-02-28T06:42:53;101977.78;;;7.69;100.00
72414;BME280;60995;52.154;4.498;2024-02-28T06:45:16;101970.81;;;7.65;100.00
72414;BME280;60995;52.154;4.498;2024-02-28T06:47:33;101968.66;;;7.56;100.00
72414;BME280;60995;52.154;4.498;2024-02-28T06:49:49;101981.09;;;7.74;100.00
72414;BME280;60995;52.154;4.498;2024-02-28T06:52:06;101986.91;;;7.83;100.00
72414;BME280;60995;52.154;4.498;2024-02-28T06:54:23;102002.69;;;8.05;100.00
72414;BME280;60995;52.154;4.498;2024-02-28T06:56:39;101996.56;;;7.87;100.00
72414;BME280;60995;52.154;4.498;2024-02-28T06:58:55;101976.41;;;7.62;100.00
72414;BME280;60995;52.154;4.498;2024-02-28T07:01:11;101974.41;;;7.66;100.00
72414;BME280;60995;52.154;4.498;2024-02-28T07:03:29;101977.41;;;7.75;100.00
72414;BME280;60995;52.154;4.498;2024-02-28T07:05:45;101971.84;;;7.78;100.00
72414;BME280;60995;52.154;4.498;2024-02-28T07:08:02;101959.69;;;7.55;100.00
72414;BME280;60995;52.154;4.498;2024-02-28T07:10:19;101958.91;;;7.53;100.00
72414;BME280;60995;52.154;4.498;2024-02-28T07:12:35;101981.44;;;7.68;100.00
72414;BME280;60995;52.154;4.498;2024-02-28T07:14:52;101976.06;;;7.68;100.00
72414;BME280;60995;52.154;4.498;2024-02-28T07:17:08;101978.41;;;7.74;100.00
72414;BME280;60995;52.154;4.498;2024-02-28T07:19:26;101987.44;;;7.73;100.00
72414;BME280;60995;52.154;4.498;2024-02-28T07:21:42;101985.81;;;7.71;100.00
72414;BME280;60995;52.154;4.498;2024-02-28T07:24:03;102000.06;;;7.89;100.00
72414;BME280;60995;52.154;4.498;2024-02-28T07:26:20;101984.56;;;7.76;100.00
72414;BME280;60995;52.154;4.498;2024-02-28T07:28:37;101987.66;;;7.85;100.00
72414;BME280;60995;52.154;4.498;2024-02-28T07:30:53;101990.09;;;7.89;100.00
72414;BME280;60995;52.154;4.498;2024-02-28T07:33:09;101995.41;;;7.91;100.00
72414;BME280;60995;52.154;4.498;2024-02-28T07:35:26;101998.06;;;8.07;100.00
72414;BME280;60995;52.154;4.498;2024-02-28T07:37:42;102002.69;;;8.05;100.00
72414;BME280;60995;52.154;4.498;2024-02-28T07:39:59;102002.78;;;8.03;100.00
72414;BME280;60995;52.154;4.498;2024-02-28T07:42:15;102012.50;;;8.22;100.00
72414;BME280;60995;52.154;4.498;2024-02-28T07:44:32;102018.28;;;8.30;100.00
72414;BME280;60995;52.154;4.498;2024-02-28T07:46:48;102032.50;;;8.34;100.00
72414;BME280;60995;52.154;4.498;2024-02-28T07:49:06;102052.19;;;8.52;100.00
72414;BME280;60995;52.154;4.498;2024-02-28T07:51:22;102069.59;;;8.62;100.00
72414;BME280;60995;52.154;4.498;2024-02-28T07:53:44;102064.91;;;8.50;100.00
72414;BME280;60995;52.154;4.498;2024-02-28T07:56:02;102079.25;;;8.66;100.00
72414;BME280;60995;52.154;4.498;2024-02-28T07:58:19;102079.72;;;8.58;100.00
72414;BME280;60995;52.154;4.498;2024-02-28T08:00:35;102079.72;;;8.58;100.00
72414;BME280;60995;52.154;4.498;2024-02-28T08:02:51;102092.78;;;8.81;100.00
72414;BME280;60995;52.154;4.498;2024-02-28T08:05:08;102099.00;;;8.83;100.00
72414;BME280;60995;52.154;4.498;2024-02-28T08:07:24;102101.13;;;8.77;100.00
72414;BME280;60995;52.154;4.498;2024-02-28T08:09:41;102093.72;;;8.51;100.00
72414;BME280;60995;52.154;4.498;2024-02-28T08:11:57;102108.25;;;8.78;100.00
72414;BME280;60995;52.154;4.498;2024-02-28T08:14:14;102103.34;;;8.85;100.00
72414;BME280;60995;52.154;4.498;2024-02-28T08:16:31;102108.06;;;8.82;100.00
72414;BME280;60995;52.154;4.498;2024-02-28T08:18:47;102104.44;;;8.52;100.00
72414;BME280;60995;52.154;4.498;2024-02-28T08:21:03;102111.34;;;8.72;100.00
72414;BME280;60995;52.154;4.498;2024-02-28T08:23:20;102108.66;;;8.72;100.00
72414;BME280;60995;52.154;4.498;2024-02-28T08:25:39;102110.41;;;8.88;100.00
72414;BME280;60995;52.154;4.498;2024-02-28T08:27:56;102113.00;;;8.89;100.00
72414;BME280;60995;52.154;4.498;2024-02-28T08:30:12;102138.81;;;9.09;100.00
72414;BME280;60995;52.154;4.498;2024-02-28T08:32:29;102125.50;;;8.92;100.00
72414;BME280;60995;52.154;4.498;2024-02-28T08:34:45;102152.47;;;9.37;100.00
72414;BME280;60995;52.154;4.498;2024-02-28T08:37:02;102137.66;;;8.99;100.00
72414;BME280;60995;52.154;4.498;2024-02-28T08:39:18;102139.59;;;8.97;100.00
72414;BME280;60995;52.154;4.498;2024-02-28T08:41:35;102134.38;;;9.08;100.00
72414;BME280;60995;52.154;4.498;2024-02-28T08:43:51;102146.78;;;9.13;100.00
72414;BME280;60995;52.154;4.498;2024-02-28T08:46:08;102139.19;;;9.03;100.00
72414;BME280;60995;52.154;4.498;2024-02-28T08:48:25;102140.69;;;9.09;100.00
72414;BME280;60995;52.154;4.498;2024-02-28T08:50:41;102158.78;;;9.37;100.00
72414;BME280;60995;52.154;4.498;2024-02-28T08:52:58;102141.53;;;9.09;100.00
72414;BME280;60995;52.154;4.498;2024-02-28T08:55:14;102124.81;;;8.88;100.00
72414;BME280;60995;52.154;4.498;2024-02-28T08:57:34;102132.56;;;9.09;100.00
72414;BME280;60995;52.154;4.498;2024-02-28T08:59:50;102137.88;;;9.10;100.00
72414;BME280;60995;52.154;4.498;2024-02-28T09:09:03;102139.19;;;9.03;100.00
72414;BME280;60995;52.154;4.498;2024-02-28T09:11:19;102138.81;;;9.09;100.00
72414;BME280;60995;52.154;4.498;2024-02-28T09:13:36;102134.47;;;9.07;100.00
72414;BME280;60995;52.154;4.498;2024-02-28T09:15:55;102148.91;;;9.36;100.00
72414;BME280;60995;52.154;4.498;2024-02-28T09:18:11;102161.94;;;9.58;100.00
72414;BME280;60995;52.154;4.498;2024-02-28T09:20:28;102172.88;;;9.71;100.00
72414;BME280;60995;52.154;4.498;2024-02-28T09:22:44;102172.66;;;9.74;100.00
72414;BME280;60995;52.154;4.498;2024-02-28T09:25:03;102174.00;;;9.67;100.00
72414;BME280;60995;52.154;4.498;2024-02-28T09:30:38;102192.19;;;9.94;100.00
72414;BME280;60995;52.154;4.498;2024-02-28T09:33:17;102208.69;;;10.18;100.00
72414;BME280;60995;52.154;4.498;2024-02-28T09:35:56;102222.69;;;10.39;100.00
72414;BME280;60995;52.154;4.498;2024-02-28T09:38:19;102237.81;;;10.29;100.00
72414;BME280;60995;52.154;4.498;2024-02-28T09:40:46;102232.66;;;10.39;100.00
72414;BME280;60995;52.154;4.498;2024-02-28T09:43:17;102234.13;;;10.30;100.00
72414;BME280;60995;52.154;4.498;2024-02-28T09:46:03;102237.19;;;10.53;100.00
72414;BME280;60995;52.154;4.498;2024-02-28T09:48:29;102232.88;;;10.36;100.00
72414;BME280;60995;52.154;4.498;2024-02-28T09:50:49;102215.22;;;10.01;100.00
72414;BME280;60995;52.154;4.498;2024-02-28T09:53:34;102229.19;;;10.37;100.00
72414;BME280;60995;52.154;4.498;2024-02-28T09:55:54;102231.19;;;10.48;100.00
72414;BME280;60995;52.154;4.498;2024-02-28T09:58:27;102221.81;;;10.39;100.00
72414;BME280;60995;52.154;4.498;2024-02-28T10:01:10;102215.94;;;10.18;100.00
72414;BME280;60995;52.154;4.498;2024-02-28T10:03:54;102234.28;;;10.69;100.00
72414;BME280;60995;52.154;4.498;2024-02-28T10:06:47;102237.63;;;10.59;100.00
72414;BME280;60995;52.154;4.498;2024-02-28T10:09:19;102242.69;;;10.79;100.00
72414;BME280;60995;52.154;4.498;2024-02-28T10:11:44;102212.91;;;10.37;100.00
72414;BME280;60995;52.154;4.498;2024-02-28T10:14:11;102235.84;;;10.86;100.00
72414;BME280;60995;52.154;4.498;2024-02-28T10:16:35;102230.38;;;10.60;100.00
72414;BME280;60995;52.154;4.498;2024-02-28T10:18:58;102240.19;;;10.75;100.00
72414;BME280;60995;52.154;4.498;2024-02-28T10:21:21;102236.06;;;10.83;100.00
72414;BME280;60995;52.154;4.498;2024-02-28T10:23:41;102223.81;;;10.50;100.00
72414;BME280;60995;52.154;4.498;2024-02-28T10:26:03;102217.28;;;10.39;100.00
72414;BME280;60995;52.154;4.498;2024-02-28T10:28:24;102243.28;;;10.97;100.00
72414;BME280;60995;52.154;4.498;2024-02-28T10:30:46;102241.53;;;10.96;100.00
72414;BME280;60995;52.154;4.498;2024-02-28T10:33:12;102227.59;;;10.74;100.00
72414;BME280;60995;52.154;4.498;2024-02-28T10:35:51;102238.22;;;10.78;100.00
72414;BME280;60995;52.154;4.498;2024-02-28T10:38:13;102253.09;;;11.12;100.00
72414;BME280;60995;52.154;4.498;2024-02-28T10:40:49;102264.31;;;11.46;100.00
72414;BME280;60995;52.154;4.498;2024-02-28T10:43:12;102249.41;;;11.26;100.00
72414;BME280;60995;52.154;4.498;2024-02-28T10:45:32;102250.06;;;11.30;100.00
72414;BME280;60995;52.154;4.498;2024-02-28T10:47:51;102230.16;;;11.03;100.00
72414;BME280;60995;52.154;4.498;2024-02-28T10:50:12;102246.78;;;11.24;100.00
72414;BME280;60995;52.154;4.498;2024-02-28T10:52:33;102252.13;;;11.26;100.00
72414;BME280;60995;52.154;4.498;2024-02-28T10:54:54;102249.19;;;11.29;100.00
72414;BME280;60995;52.154;4.498;2024-02-28T10:57:19;102253.31;;;11.35;100.00
72414;BME280;60995;52.154;4.498;2024-02-28T11:00:03;102234.59;;;10.91;100.00
72414;BME280;60995;52.154;4.498;2024-02-28T11:02:24;102218.44;;;10.63;100.00
72414;BME280;60995;52.154;4.498;2024-02-28T11:04:47;102217.59;;;10.75;100.00
72414;BME280;60995;52.154;4.498;2024-02-28T11:07:03;102229.81;;;10.95;100.00
72414;BME280;60995;52.154;4.498;2024-02-28T11:09:22;102235.25;;;10.95;100.00
72414;BME280;60995;52.154;4.498;2024-02-28T11:11:45;102247.88;;;11.22;100.00
72414;BME280;60995;52.154;4.498;2024-02-28T11:14:02;102248.75;;;11.22;100.00
72414;BME280;60995;52.154;4.498;2024-02-28T11:16:30;102262.03;;;11.53;100.00
72414;BME280;60995;52.154;4.498;2024-02-28T11:18:49;102262.78;;;11.55;100.00
72414;BME280;60995;52.154;4.498;2024-02-28T11:21:15;102254.19;;;11.35;100.00
72414;BME280;60995;52.154;4.498;2024-02-28T11:23:37;102245.28;;;11.33;100.00
72414;BME280;60995;52.154;4.498;2024-02-28T11:25:53;102239.94;;;11.19;100.00
72414;BME280;60995;52.154;4.498;2024-02-28T11:28:10;102222.66;;;11.07;100.00
72414;BME280;60995;52.154;4.498;2024-02-28T11:30:26;102200.88;;;10.68;100.00
72414;BME280;60995;52.154;4.498;2024-02-28T11:32:42;102209.63;;;10.99;100.00
72414;BME280;60995;52.154;4.498;2024-02-28T11:35:01;102229.19;;;11.30;100.00
72414;BME280;60995;52.154;4.498;2024-02-28T11:37:18;102241.25;;;11.52;100.00
72414;BME280;60995;52.154;4.498;2024-02-28T11:39:34;102227.66;;;11.26;100.00
72414;BME280;60995;52.154;4.498;2024-02-28T11:41:52;102229.09;;;11.19;100.00
72414;BME280;60995;52.154;4.498;2024-02-28T11:44:09;102209.59;;;10.86;100.00
72414;BME280;60995;52.154;4.498;2024-02-28T11:46:27;102204.59;;;10.93;100.00
72414;BME280;60995;52.154;4.498;2024-02-28T11:48:44;102211.66;;;10.96;100.00
72414;BME280;60995;52.154;4.498;2024-02-28T11:51:01;102223.75;;;11.30;100.00
72414;BME280;60995;52.154;4.498;2024-02-28T11:53:18;102215.72;;;11.29;100.00
72414;BME280;60995;52.154;4.498;2024-02-28T11:55:35;102199.38;;;10.77;100.00
72414;BME280;60995;52.154;4.498;2024-02-28T11:57:52;102201.78;;;10.95;100.00
72414;BME280;60995;52.154;4.498;2024-02-28T12:00:09;102208.66;;;11.00;100.00
72414;BME280;60995;52.154;4.498;2024-02-28T12:02:28;102207.22;;;11.07;100.00
72414;BME280;60995;52.154;4.498;2024-02-28T12:04:46;102209.16;;;11.05;100.00
72414;BME280;60995;52.154;4.498;2024-02-28T12:07:06;102211.25;;;11.15;100.00
72414;BME280;60995;52.154;4.498;2024-02-28T12:09:23;102212.78;;;11.19;100.00
72414;BME280;60995;52.154;4.498;2024-02-28T12:11:41;102200.28;;;11.03;100.00